createdAt,value
2022-11-01T00:02:00.030Z,13.10
2022-11-01T00:04:27.583Z,13.20
2022-11-01T00:06:55.123Z,13.10
2022-11-01T00:09:22.313Z,13.10
2022-11-01T00:11:49.661Z,13.10
2022-11-01T00:14:18.859Z,13.10
2022-11-01T00:16:46.064Z,13.10
2022-11-01T00:19:13.369Z,13.10
2022-11-01T00:21:40.581Z,13.10
2022-11-01T00:24:07.917Z,13.10
2022-11-01T00:26:35.368Z,13.10
2022-11-01T00:29:02.716Z,13.10
2022-11-01T00:31:29.933Z,13.10
2022-11-01T00:33:57.081Z,13.10
2022-11-01T00:36:24.243Z,13.10
2022-11-01T00:38:52.745Z,13.10
2022-11-01T00:41:21.856Z,13.10
2022-11-01T00:43:49.592Z,13.10
2022-11-01T00:46:17.438Z,13.10
2022-11-01T00:48:44.860Z,13.10
2022-11-01T00:51:12.000Z,13.10
2022-11-01T00:53:39.084Z,13.10
2022-11-01T00:56:07.202Z,13.10
2022-11-01T00:58:34.499Z,13.10
2022-11-01T01:01:02.115Z,13.10
2022-11-01T01:03:29.481Z,13.10
2022-11-01T01:05:57.142Z,13.10
2022-11-01T01:08:25.214Z,13.10
2022-11-01T01:10:53.093Z,13.10
2022-11-01T01:13:20.973Z,13.10
2022-11-01T01:15:48.171Z,13.10
2022-11-01T01:18:15.394Z,13.10
2022-11-01T01:20:42.690Z,13.10
2022-11-01T01:23:09.870Z,13.10
2022-11-01T01:25:42.635Z,13.10
2022-11-01T01:28:10.164Z,13.10
2022-11-01T01:30:41.302Z,13.10
2022-11-01T01:33:09.345Z,13.10
2022-11-01T01:35:38.556Z,13.10
2022-11-01T01:38:07.131Z,13.10
2022-11-01T01:40:35.031Z,13.10
2022-11-01T01:43:02.120Z,13.10
2022-11-01T01:45:31.669Z,13.10
2022-11-01T01:48:10.549Z,13.10
2022-11-01T01:51:02.670Z,13.10
2022-11-01T01:53:35.070Z,13.10
2022-11-01T01:56:21.123Z,13.10
2022-11-01T01:59:01.442Z,13.10
2022-11-01T02:01:29.580Z,13.10
2022-11-01T02:03:56.852Z,13.10
2022-11-01T02:06:25.867Z,13.10
2022-11-01T02:08:56.624Z,13.10
2022-11-01T02:11:24.189Z,13.00
2022-11-01T02:13:51.607Z,13.10
2022-11-01T02:16:43.379Z,13.10
2022-11-01T02:19:16.249Z,13.10
2022-11-01T02:21:52.526Z,13.10
2022-11-01T02:24:29.087Z,13.00
2022-11-01T02:27:18.995Z,13.10
2022-11-01T02:30:03.039Z,13.10
2022-11-01T02:32:53.406Z,13.10
2022-11-01T02:35:25.076Z,13.10
2022-11-01T02:38:08.778Z,13.10
2022-11-01T02:40:47.490Z,13.10
2022-11-01T02:43:30.449Z,13.10
2022-11-01T02:45:58.787Z,13.10
2022-11-01T02:48:26.260Z,13.10
2022-11-01T02:50:57.159Z,13.10
2022-11-01T02:53:24.999Z,13.00
2022-11-01T02:55:53.252Z,13.10
2022-11-01T02:58:27.551Z,13.10
2022-11-01T03:00:57.114Z,13.10
2022-11-01T03:03:27.875Z,13.00
2022-11-01T03:06:05.211Z,13.10
2022-11-01T03:09:01.233Z,13.10
2022-11-01T03:11:55.379Z,13.00
2022-11-01T03:14:41.401Z,13.10
2022-11-01T03:17:26.755Z,13.10
2022-11-01T03:20:08.295Z,13.00
2022-11-01T03:22:44.424Z,13.00
2022-11-01T03:25:35.464Z,13.00
2022-11-01T03:28:07.535Z,13.10
2022-11-01T03:30:35.949Z,13.00
2022-11-01T03:33:04.176Z,13.00
2022-11-01T03:35:37.993Z,13.00
2022-11-01T03:38:13.214Z,13.00
2022-11-01T03:40:48.584Z,13.00
2022-11-01T03:43:19.677Z,13.00
2022-11-01T03:45:47.373Z,13.00
2022-11-01T03:48:14.668Z,13.00
2022-11-01T03:50:48.058Z,13.00
2022-11-01T03:53:15.838Z,13.00
2022-11-01T03:55:43.925Z,13.00
2022-11-01T03:58:11.282Z,13.00
2022-11-01T04:00:44.524Z,13.00
2022-11-01T04:03:12.667Z,13.00
2022-11-01T04:05:41.763Z,13.00
2022-11-01T04:08:11.398Z,13.00
2022-11-01T04:10:38.808Z,13.00
2022-11-01T04:13:06.150Z,13.00
2022-11-01T04:15:51.959Z,13.00
2022-11-01T04:21:14.893Z,13.00
2022-11-01T04:23:43.286Z,13.00
2022-11-01T04:26:15.602Z,13.00
2022-11-01T04:28:44.970Z,13.00
2022-11-01T04:31:12.095Z,12.90
2022-11-01T04:33:39.229Z,13.00
2022-11-01T04:36:07.148Z,12.90
2022-11-01T04:38:34.396Z,13.00
2022-11-01T04:41:01.523Z,13.00
2022-11-01T04:43:28.664Z,12.90
2022-11-01T04:45:57.069Z,12.90
2022-11-01T04:48:24.825Z,13.00
2022-11-01T04:50:52.189Z,12.90
2022-11-01T04:53:19.495Z,12.90
2022-11-01T04:55:46.578Z,12.90
2022-11-01T04:58:14.772Z,12.90
2022-11-01T05:00:44.071Z,12.90
2022-11-01T05:03:12.509Z,12.90
2022-11-01T05:05:39.869Z,12.90
2022-11-01T05:08:12.047Z,12.90
2022-11-01T05:10:44.527Z,12.90
2022-11-01T05:13:13.172Z,12.90
2022-11-01T05:15:53.625Z,12.90
2022-11-01T05:18:27.594Z,12.90
2022-11-01T05:20:55.867Z,12.90
2022-11-01T05:23:23.124Z,12.90
2022-11-01T05:25:50.229Z,12.90
2022-11-01T05:28:17.597Z,12.90
2022-11-01T05:30:44.719Z,12.90
2022-11-01T05:33:12.226Z,12.90
2022-11-01T05:35:39.438Z,12.90
2022-11-01T05:38:06.703Z,12.90
2022-11-01T05:40:33.854Z,12.90
2022-11-01T05:43:01.340Z,12.90
2022-11-01T05:45:28.697Z,12.90
2022-11-01T05:47:56.892Z,12.90
2022-11-01T05:50:24.004Z,12.90
2022-11-01T05:52:51.106Z,12.90
2022-11-01T05:55:18.290Z,12.90
2022-11-01T05:57:45.448Z,12.90
2022-11-01T06:00:12.924Z,12.90
2022-11-01T06:02:40.169Z,12.90
2022-11-01T06:05:07.565Z,12.90
2022-11-01T06:07:36.522Z,12.90
2022-11-01T06:10:04.758Z,12.90
2022-11-01T06:12:31.916Z,12.90
2022-11-01T06:14:59.123Z,12.90
2022-11-01T06:17:26.300Z,12.90
2022-11-01T06:19:53.483Z,12.90
2022-11-01T06:22:20.613Z,12.90
2022-11-01T06:24:47.749Z,12.90
2022-11-01T06:27:14.821Z,12.90
2022-11-01T06:29:42.154Z,12.90
2022-11-01T06:32:09.339Z,12.90
2022-11-01T06:34:40.781Z,12.90
2022-11-01T06:37:11.131Z,12.90
2022-11-01T06:39:38.366Z,12.90
2022-11-01T06:42:06.001Z,12.90
2022-11-01T06:44:33.159Z,12.90
2022-11-01T06:47:00.239Z,12.90
2022-11-01T06:49:27.426Z,13.00
2022-11-01T06:51:55.002Z,12.90
2022-11-01T06:54:22.104Z,12.90
2022-11-01T06:56:49.718Z,12.90
2022-11-01T06:59:17.201Z,12.90
2022-11-01T07:01:44.864Z,13.00
2022-11-01T07:06:44.830Z,13.00
2022-11-01T07:09:12.013Z,12.90
2022-11-01T07:11:39.522Z,13.00
2022-11-01T07:14:07.013Z,13.00
2022-11-01T07:16:39.145Z,13.00
2022-11-01T07:19:06.412Z,13.00
2022-11-01T07:21:33.524Z,13.00
2022-11-01T07:24:00.747Z,13.00
2022-11-01T07:26:27.845Z,13.00
2022-11-01T07:28:55.020Z,13.00
2022-11-01T07:31:22.234Z,13.00
2022-11-01T07:33:49.355Z,13.00
2022-11-01T07:36:16.481Z,13.00
2022-11-01T07:38:43.633Z,13.00
2022-11-01T07:41:11.249Z,13.00
2022-11-01T07:43:38.797Z,13.00
2022-11-01T07:46:07.298Z,13.00
2022-11-01T07:48:37.057Z,13.00
2022-11-01T07:51:06.170Z,13.10
2022-11-01T07:53:34.292Z,13.10
2022-11-01T07:56:10.711Z,13.10
2022-11-01T07:58:38.217Z,13.10
2022-11-01T08:01:06.819Z,13.00
2022-11-01T08:03:34.027Z,13.00
2022-11-01T08:06:01.108Z,13.10
2022-11-01T08:08:28.260Z,13.10
2022-11-01T08:10:55.420Z,13.10
2022-11-01T08:13:24.405Z,13.10
2022-11-01T08:15:52.940Z,13.10
2022-11-01T08:18:22.520Z,13.10
2022-11-01T08:20:50.165Z,13.10
2022-11-01T08:23:17.434Z,13.20
2022-11-01T08:25:45.768Z,13.20
2022-11-01T08:28:16.111Z,13.20
2022-11-01T08:30:44.816Z,13.20
2022-11-01T08:33:12.127Z,13.20
2022-11-01T08:35:39.713Z,13.20
2022-11-01T08:38:06.945Z,13.20
2022-11-01T08:40:35.665Z,13.20
2022-11-01T08:43:03.088Z,13.20
2022-11-01T08:45:30.476Z,13.20
2022-11-01T08:47:59.537Z,13.20
2022-11-01T08:50:27.058Z,13.20
2022-11-01T08:52:54.179Z,13.20
2022-11-01T08:55:22.029Z,13.30
2022-11-01T08:57:49.461Z,13.30
2022-11-01T09:00:17.339Z,13.20
2022-11-01T09:02:44.438Z,13.30
2022-11-01T09:05:11.785Z,13.30
2022-11-01T09:07:39.680Z,13.30
2022-11-01T09:10:08.331Z,13.30
2022-11-01T09:12:35.858Z,13.30
2022-11-01T09:15:04.536Z,13.40
2022-11-01T09:17:32.016Z,13.40
2022-11-01T09:19:59.173Z,13.40
2022-11-01T09:22:26.668Z,13.40
2022-11-01T09:24:55.626Z,13.40
2022-11-01T09:27:22.844Z,13.70
2022-11-01T09:29:51.943Z,13.90
2022-11-01T09:32:21.394Z,14.00
2022-11-01T09:34:49.288Z,14.20
2022-11-01T09:37:17.084Z,14.20
2022-11-01T09:39:44.279Z,14.30
2022-11-01T09:42:28.681Z,14.30
2022-11-01T09:45:00.687Z,14.40
2022-11-01T09:47:30.103Z,14.40
2022-11-01T09:50:23.707Z,14.50
2022-11-01T09:52:52.622Z,14.50
2022-11-01T09:55:40.108Z,14.50
2022-11-01T09:58:13.831Z,14.50
2022-11-01T10:00:51.831Z,14.60
2022-11-01T10:03:50.800Z,14.60
2022-11-01T10:06:27.178Z,14.60
2022-11-01T10:09:45.137Z,14.60
2022-11-01T10:12:34.185Z,14.70
2022-11-01T10:15:11.369Z,14.70
2022-11-01T10:17:53.045Z,14.70
2022-11-01T10:20:27.577Z,14.70
2022-11-01T10:22:55.454Z,14.80
2022-11-01T10:25:22.628Z,14.90
2022-11-01T10:27:58.849Z,15.00
2022-11-01T10:30:27.624Z,15.10
2022-11-01T10:33:15.081Z,15.20
2022-11-01T10:35:45.690Z,15.30
2022-11-01T10:39:48.296Z,15.30
2022-11-01T10:41:50.347Z,15.30
2022-11-01T10:44:41.501Z,15.30
2022-11-01T10:47:16.183Z,15.30
2022-11-01T10:53:00.245Z,15.50
2022-11-01T10:55:41.649Z,15.50
2022-11-01T10:58:28.981Z,15.60
2022-11-01T11:00:56.354Z,15.60
2022-11-01T11:03:26.421Z,15.60
2022-11-01T11:05:55.636Z,15.60
2022-11-01T11:08:24.813Z,15.60
2022-11-01T11:10:52.768Z,15.70
2022-11-01T11:13:22.846Z,15.70
2022-11-01T11:16:01.685Z,15.80
2022-11-01T11:18:37.677Z,15.90
2022-11-01T11:21:27.955Z,15.90
2022-11-01T11:23:55.592Z,15.80
2022-11-01T11:26:22.994Z,15.80
2022-11-01T11:28:53.727Z,15.90
2022-11-01T11:31:24.375Z,16.00
2022-11-01T11:33:56.671Z,15.90
2022-11-01T11:36:47.213Z,15.80
2022-11-01T11:39:32.109Z,15.70
2022-11-01T11:42:14.568Z,15.60
2022-11-01T11:44:45.353Z,15.60
2022-11-01T11:47:28.232Z,15.70
2022-11-01T11:49:58.487Z,15.80
2022-11-01T11:52:38.334Z,15.80
2022-11-01T11:55:24.123Z,15.70
2022-11-01T11:57:54.277Z,15.70
2022-11-01T12:00:24.254Z,15.80
2022-11-01T12:02:51.546Z,15.80
2022-11-01T12:05:22.683Z,15.80
2022-11-01T12:07:52.078Z,15.80
2022-11-01T12:10:45.703Z,15.70
2022-11-01T12:13:37.503Z,15.70
2022-11-01T12:16:14.779Z,15.60
2022-11-01T12:18:53.063Z,15.60
2022-11-01T12:21:40.174Z,15.60
2022-11-01T12:24:47.472Z,15.60
2022-11-01T12:27:20.294Z,15.60
2022-11-01T12:29:51.200Z,15.50
2022-11-01T12:32:28.042Z,15.50
2022-11-01T12:34:59.743Z,15.50
2022-11-01T12:37:35.374Z,15.40
2022-11-01T12:40:17.170Z,15.40
2022-11-01T12:42:55.111Z,15.40
2022-11-01T12:45:34.364Z,15.40
2022-11-01T12:48:07.851Z,15.40
2022-11-01T12:51:02.536Z,15.30
2022-11-01T12:53:34.400Z,15.40
2022-11-01T12:56:01.631Z,15.50
2022-11-01T12:58:33.495Z,15.50
2022-11-01T13:01:08.707Z,15.60
2022-11-01T13:03:52.179Z,15.50
2022-11-01T13:06:34.563Z,15.60
2022-11-01T13:09:35.427Z,15.60
2022-11-01T13:12:14.566Z,15.50
2022-11-01T13:15:02.417Z,15.50
2022-11-01T13:17:58.245Z,15.50
2022-11-01T13:20:44.326Z,15.50
2022-11-01T13:23:16.312Z,15.40
2022-11-01T13:25:48.179Z,15.40
2022-11-01T13:28:53.583Z,15.40
2022-11-01T13:31:35.689Z,15.40
2022-11-01T13:34:35.025Z,15.40
2022-11-01T13:37:19.449Z,15.30
2022-11-01T13:40:07.973Z,15.30
2022-11-01T13:42:39.951Z,15.30
2022-11-01T13:45:36.243Z,15.30
2022-11-01T13:48:36.532Z,15.30
2022-11-01T13:51:31.506Z,15.30
2022-11-01T13:54:06.587Z,15.30
2022-11-01T13:57:01.839Z,15.30
2022-11-01T13:59:31.244Z,15.30
2022-11-01T14:02:24.419Z,15.30
2022-11-01T14:05:03.869Z,15.30
2022-11-01T14:07:43.901Z,15.30
2022-11-01T14:10:22.721Z,15.30
2022-11-01T14:13:07.699Z,15.30
2022-11-01T14:15:39.721Z,15.20
2022-11-01T14:18:11.016Z,15.20
2022-11-01T14:20:43.270Z,15.20
2022-11-01T14:23:31.851Z,15.20
2022-11-01T14:26:20.640Z,15.20
2022-11-01T14:28:59.162Z,15.30
2022-11-01T14:31:33.944Z,15.20
2022-11-01T14:34:09.172Z,15.20
2022-11-01T14:36:40.803Z,15.20
2022-11-01T14:39:42.114Z,15.20
2022-11-01T14:42:14.488Z,15.20
2022-11-01T14:44:49.561Z,15.30
2022-11-01T14:47:40.069Z,15.30
2022-11-01T14:50:26.111Z,15.30
2022-11-01T14:53:04.998Z,15.20
2022-11-01T14:55:36.813Z,15.20
2022-11-01T14:58:21.698Z,15.20
2022-11-01T15:00:51.711Z,15.20
2022-11-01T15:03:20.477Z,15.20
2022-11-01T15:05:50.499Z,15.20
2022-11-01T15:08:38.312Z,15.20
2022-11-01T15:11:32.344Z,15.20
2022-11-01T15:14:03.156Z,15.20
2022-11-01T15:16:30.465Z,15.10
2022-11-01T15:19:04.905Z,15.10
2022-11-01T15:21:34.494Z,15.10
2022-11-01T15:24:03.191Z,15.10
2022-11-01T15:26:33.070Z,15.10
2022-11-01T15:29:05.934Z,15.10
2022-11-01T15:31:34.928Z,15.10
2022-11-01T15:34:05.042Z,15.10
2022-11-01T15:36:33.802Z,15.10
2022-11-01T15:39:03.487Z,15.10
2022-11-01T15:41:33.435Z,15.10
2022-11-01T15:44:06.398Z,15.10
2022-11-01T15:46:43.530Z,15.10
2022-11-01T15:49:20.021Z,15.10
2022-11-01T15:52:02.024Z,15.10
2022-11-01T15:55:07.830Z,15.10
2022-11-01T15:58:07.129Z,15.10
2022-11-01T16:00:38.653Z,15.00
2022-11-01T16:03:14.723Z,15.00
2022-11-01T16:05:56.712Z,15.00
2022-11-01T16:08:36.193Z,15.00
2022-11-01T16:11:03.633Z,15.00
2022-11-01T16:13:33.403Z,15.00
2022-11-01T16:16:07.323Z,15.00
2022-11-01T16:18:40.508Z,15.00
2022-11-01T16:21:19.700Z,15.00
2022-11-01T16:24:09.667Z,15.00
2022-11-01T16:26:54.611Z,15.00
2022-11-01T16:29:42.785Z,15.00
2022-11-01T16:32:28.694Z,15.00
2022-11-01T16:34:55.958Z,15.00
2022-11-01T16:37:25.841Z,14.90
2022-11-01T16:39:54.545Z,14.90
2022-11-01T16:42:23.047Z,14.90
2022-11-01T16:44:54.996Z,14.90
2022-11-01T16:47:22.919Z,14.90
2022-11-01T16:49:55.284Z,14.90
2022-11-01T16:52:29.869Z,14.90
2022-11-01T16:57:34.334Z,14.90
2022-11-01T17:00:03.513Z,14.90
2022-11-01T17:02:33.564Z,14.90
2022-11-01T17:05:08.124Z,14.90
2022-11-01T17:07:37.156Z,14.80
2022-11-01T17:10:32.310Z,14.80
2022-11-01T17:13:05.548Z,14.80
2022-11-01T17:15:47.654Z,14.80
2022-11-01T17:18:33.557Z,14.80
2022-11-01T17:21:09.848Z,14.80
2022-11-01T17:23:39.239Z,14.80
2022-11-01T17:26:13.263Z,14.80
2022-11-01T17:28:47.847Z,14.80
2022-11-01T17:31:21.852Z,14.70
2022-11-01T17:33:52.671Z,14.70
2022-11-01T17:36:20.471Z,14.70
2022-11-01T17:38:51.287Z,14.70
2022-11-01T17:41:22.119Z,14.70
2022-11-01T17:43:52.294Z,14.70
2022-11-01T17:46:25.808Z,14.70
2022-11-01T17:48:53.138Z,14.70
2022-11-01T17:51:23.053Z,14.70
2022-11-01T17:53:54.787Z,14.70
2022-11-01T17:56:22.931Z,14.60
2022-11-01T17:58:52.797Z,14.70
2022-11-01T18:01:23.013Z,14.70
2022-11-01T18:03:50.422Z,14.70
2022-11-01T18:06:20.486Z,14.60
2022-11-01T18:08:50.374Z,14.60
2022-11-01T18:11:41.719Z,14.60
2022-11-01T18:14:39.407Z,14.60
2022-11-01T18:17:36.441Z,14.60
2022-11-01T18:20:36.486Z,14.60
2022-11-01T18:23:16.910Z,14.60
2022-11-01T18:25:49.412Z,14.50
2022-11-01T18:28:30.325Z,14.50
2022-11-01T18:31:00.885Z,14.50
2022-11-01T18:33:54.946Z,14.50
2022-11-01T18:36:38.994Z,14.50
2022-11-01T18:39:31.602Z,14.50
2022-11-01T18:42:00.849Z,14.50
2022-11-01T18:44:28.010Z,14.50
2022-11-01T18:47:23.599Z,14.50
2022-11-01T18:49:50.928Z,14.50
2022-11-01T18:52:19.379Z,14.40
2022-11-01T18:54:53.644Z,14.40
2022-11-01T18:57:26.159Z,14.40
2022-11-01T18:59:54.575Z,14.40
2022-11-01T19:02:27.127Z,14.40
2022-11-01T19:05:15.273Z,14.40
2022-11-01T19:08:09.039Z,14.40
2022-11-01T19:10:30.226Z,14.40
2022-11-01T19:12:57.420Z,14.40
2022-11-01T19:15:28.326Z,14.40
2022-11-01T19:17:58.934Z,14.30
2022-11-01T19:20:29.255Z,14.20
2022-11-01T19:23:04.398Z,14.20
2022-11-01T19:25:36.761Z,14.10
2022-11-01T19:28:19.832Z,14.10
2022-11-01T19:30:51.430Z,14.20
2022-11-01T19:33:48.447Z,14.30
2022-11-01T19:36:19.797Z,14.30
2022-11-01T19:38:48.220Z,14.30
2022-11-01T19:41:34.720Z,14.40
2022-11-01T19:44:12.073Z,14.40
2022-11-01T19:46:42.315Z,14.40
2022-11-01T19:49:24.446Z,14.40
2022-11-01T19:52:11.398Z,14.40
2022-11-01T19:54:41.922Z,14.40
2022-11-01T20:00:00.436Z,14.40
2022-11-01T20:02:27.766Z,14.40
2022-11-01T20:04:59.590Z,14.40
2022-11-01T20:07:28.325Z,14.30
2022-11-01T20:09:58.781Z,14.40
2022-11-01T20:12:26.170Z,14.40
2022-11-01T20:14:53.864Z,14.40
2022-11-01T20:17:21.028Z,14.40
2022-11-01T20:19:48.177Z,14.40
2022-11-01T20:22:15.482Z,14.40
2022-11-01T20:24:42.591Z,14.30
2022-11-01T20:27:09.669Z,14.40
2022-11-01T20:29:37.328Z,14.30
2022-11-01T20:32:04.672Z,14.30
2022-11-01T20:34:32.837Z,14.40
2022-11-01T20:37:27.130Z,14.30
2022-11-01T20:39:47.138Z,14.30
2022-11-01T20:42:15.231Z,14.40
2022-11-01T20:44:42.702Z,14.30
2022-11-01T20:47:09.878Z,14.30
2022-11-01T20:49:37.172Z,14.40
2022-11-01T20:52:26.284Z,14.30
2022-11-01T20:54:52.046Z,14.30
2022-11-01T20:57:27.656Z,14.30
2022-11-01T20:59:56.018Z,14.30
2022-11-01T21:02:23.581Z,14.30
2022-11-01T21:05:15.481Z,14.30
2022-11-01T21:07:47.806Z,14.30
2022-11-01T21:10:36.585Z,14.30
2022-11-01T21:13:21.691Z,14.20
2022-11-01T21:15:50.074Z,14.20
2022-11-01T21:18:17.535Z,14.20
2022-11-01T21:20:46.472Z,14.20
2022-11-01T21:23:22.215Z,14.20
2022-11-01T21:25:51.437Z,14.20
2022-11-01T21:28:36.773Z,14.20
2022-11-01T21:31:13.743Z,14.20
2022-11-01T21:33:53.507Z,14.10
2022-11-01T21:36:26.260Z,14.10
2022-11-01T21:38:56.252Z,14.10
2022-11-01T21:41:42.459Z,14.10
2022-11-01T21:44:19.019Z,14.10
2022-11-01T21:47:07.830Z,14.10
2022-11-01T21:49:36.685Z,14.10
2022-11-01T21:52:06.460Z,14.10
2022-11-01T21:54:35.359Z,14.10
2022-11-01T21:57:03.883Z,14.10
2022-11-01T21:59:32.182Z,14.10
2022-11-01T22:02:01.527Z,14.10
2022-11-01T22:04:30.480Z,14.10
2022-11-01T22:06:59.475Z,14.00
2022-11-01T22:09:27.506Z,14.00
2022-11-01T22:11:55.053Z,14.00
2022-11-01T22:14:22.817Z,14.00
2022-11-01T22:16:49.940Z,14.00
2022-11-01T22:19:17.052Z,14.00
2022-11-01T22:24:16.386Z,13.90
2022-11-01T22:26:43.688Z,13.90
2022-11-01T22:29:10.867Z,13.90
2022-11-01T22:31:38.022Z,13.90
2022-11-01T22:34:05.090Z,13.90
2022-11-01T22:36:36.008Z,13.90
2022-11-01T22:39:13.232Z,13.90
2022-11-01T22:41:41.165Z,13.90
2022-11-01T22:44:17.128Z,13.80
2022-11-01T22:46:47.142Z,13.80
2022-11-01T22:49:34.223Z,13.80
2022-11-01T22:52:27.055Z,13.80
2022-11-01T22:55:12.771Z,13.80
2022-11-01T22:57:50.332Z,13.80
2022-11-01T23:00:27.259Z,13.80
2022-11-01T23:03:17.031Z,13.80
2022-11-01T23:05:44.113Z,13.80
2022-11-01T23:08:25.161Z,13.80
2022-11-01T23:10:52.887Z,13.70
2022-11-01T23:13:56.317Z,13.70
2022-11-01T23:16:36.230Z,13.70
2022-11-01T23:19:08.745Z,13.70
2022-11-01T23:21:36.052Z,13.70
2022-11-01T23:24:03.252Z,13.70
2022-11-01T23:26:31.333Z,13.70
2022-11-01T23:28:59.403Z,13.70
2022-11-01T23:31:28.902Z,13.70
2022-11-01T23:33:56.616Z,13.70
2022-11-01T23:36:37.632Z,13.70
2022-11-01T23:39:09.125Z,13.60
2022-11-01T23:41:48.442Z,13.60
2022-11-01T23:44:26.934Z,13.60
2022-11-01T23:47:03.641Z,13.60
2022-11-01T23:49:33.067Z,13.60
2022-11-01T23:52:00.569Z,13.60
2022-11-01T23:54:40.985Z,13.60
2022-11-01T23:57:19.665Z,13.60
2022-11-01T23:59:50.920Z,13.50
